sensor_id;sensor_type;location;lat;lon;timestamp;P1;durP1;ratioP1;P2;durP2;ratioP2
8944;SDS011;4507;40.232;29.132;2023-07-29T00:00:25;11.30;;;3.60;;
8944;SDS011;4507;40.232;29.132;2023-07-29T00:02:54;7.60;;;3.40;;
8944;SDS011;4507;40.232;29.132;2023-07-29T00:05:42;5.30;;;3.20;;
8944;SDS011;4507;40.232;29.132;2023-07-29T00:08:11;7.40;;;3.03;;
8944;SDS011;4507;40.232;29.132;2023-07-29T00:10:42;6.40;;;2.87;;
8944;SDS011;4507;40.232;29.132;2023-07-29T00:13:11;4.57;;;2.70;;
8944;SDS011;4507;40.232;29.132;2023-07-29T00:15:40;3.83;;;2.57;;
8944;SDS011;4507;40.232;29.132;2023-07-29T00:18:09;6.23;;;2.77;;
8944;SDS011;4507;40.232;29.132;2023-07-29T00:20:38;7.80;;;2.90;;
8944;SDS011;4507;40.232;29.132;2023-07-29T00:23:07;4.90;;;2.70;;
8944;SDS011;4507;40.232;29.132;2023-07-29T00:25:36;12.07;;;3.13;;
8944;SDS011;4507;40.232;29.132;2023-07-29T00:28:06;4.93;;;2.67;;
8944;SDS011;4507;40.232;29.132;2023-07-29T00:30:35;4.67;;;2.90;;
8944;SDS011;4507;40.232;29.132;2023-07-29T00:33:04;3.83;;;2.90;;
8944;SDS011;4507;40.232;29.132;2023-07-29T00:35:34;5.03;;;3.00;;
8944;SDS011;4507;40.232;29.132;2023-07-29T00:38:03;8.03;;;3.20;;
8944;SDS011;4507;40.232;29.132;2023-07-29T00:40:32;8.17;;;3.90;;
8944;SDS011;4507;40.232;29.132;2023-07-29T00:43:04;35.37;;;25.27;;
8944;SDS011;4507;40.232;29.132;2023-07-29T00:45:36;31.77;;;22.83;;
8944;SDS011;4507;40.232;29.132;2023-07-29T00:48:06;7.90;;;4.43;;
8944;SDS011;4507;40.232;29.132;2023-07-29T00:50:35;6.03;;;3.60;;
8944;SDS011;4507;40.232;29.132;2023-07-29T00:53:04;4.83;;;3.10;;
8944;SDS011;4507;40.232;29.132;2023-07-29T00:55:34;4.10;;;3.00;;
8944;SDS011;4507;40.232;29.132;2023-07-29T00:58:03;15.10;;;3.83;;
8944;SDS011;4507;40.232;29.132;2023-07-29T01:00:32;3.30;;;2.93;;
8944;SDS011;4507;40.232;29.132;2023-07-29T01:03:04;8.17;;;3.60;;
8944;SDS011;4507;40.232;29.132;2023-07-29T01:05:35;5.33;;;3.50;;
8944;SDS011;4507;40.232;29.132;2023-07-29T01:08:12;6.70;;;4.20;;
8944;SDS011;4507;40.232;29.132;2023-07-29T01:11:11;7.83;;;4.00;;
8944;SDS011;4507;40.232;29.132;2023-07-29T01:13:53;6.57;;;5.67;;
8944;SDS011;4507;40.232;29.132;2023-07-29T01:16:30;7.30;;;5.50;;
8944;SDS011;4507;40.232;29.132;2023-07-29T01:19:05;8.50;;;5.10;;
8944;SDS011;4507;40.232;29.132;2023-07-29T01:21:35;8.70;;;5.50;;
8944;SDS011;4507;40.232;29.132;2023-07-29T01:24:07;7.07;;;5.20;;
8944;SDS011;4507;40.232;29.132;2023-07-29T01:26:36;9.17;;;5.20;;
8944;SDS011;4507;40.232;29.132;2023-07-29T01:29:05;7.47;;;4.90;;
8944;SDS011;4507;40.232;29.132;2023-07-29T01:31:34;7.97;;;5.03;;
8944;SDS011;4507;40.232;29.132;2023-07-29T01:34:09;10.93;;;4.93;;
8944;SDS011;4507;40.232;29.132;2023-07-29T01:36:45;8.00;;;4.47;;
8944;SDS011;4507;40.232;29.132;2023-07-29T01:39:19;4.90;;;3.90;;
8944;SDS011;4507;40.232;29.132;2023-07-29T01:41:50;5.90;;;3.90;;
8944;SDS011;4507;40.232;29.132;2023-07-29T01:44:21;10.67;;;4.00;;
8944;SDS011;4507;40.232;29.132;2023-07-29T01:46:55;6.83;;;4.10;;
8944;SDS011;4507;40.232;29.132;2023-07-29T01:49:24;7.77;;;3.83;;
8944;SDS011;4507;40.232;29.132;2023-07-29T01:51:53;6.70;;;3.90;;
8944;SDS011;4507;40.232;29.132;2023-07-29T01:54:24;6.73;;;4.00;;
8944;SDS011;4507;40.232;29.132;2023-07-29T01:56:53;9.83;;;4.40;;
8944;SDS011;4507;40.232;29.132;2023-07-29T01:59:41;10.97;;;4.23;;
8944;SDS011;4507;40.232;29.132;2023-07-29T02:02:10;6.43;;;4.03;;
8944;SDS011;4507;40.232;29.132;2023-07-29T02:04:39;7.33;;;4.10;;
8944;SDS011;4507;40.232;29.132;2023-07-29T02:07:08;7.03;;;4.20;;
8944;SDS011;4507;40.232;29.132;2023-07-29T02:09:39;12.67;;;4.80;;
8944;SDS011;4507;40.232;29.132;2023-07-29T02:12:08;7.07;;;4.27;;
8944;SDS011;4507;40.232;29.132;2023-07-29T02:14:37;11.60;;;4.23;;
8944;SDS011;4507;40.232;29.132;2023-07-29T02:17:06;7.07;;;4.17;;
8944;SDS011;4507;40.232;29.132;2023-07-29T02:19:35;7.27;;;4.00;;
8944;SDS011;4507;40.232;29.132;2023-07-29T02:22:04;5.70;;;3.50;;
8944;SDS011;4507;40.232;29.132;2023-07-29T02:24:33;6.30;;;3.60;;
8944;SDS011;4507;40.232;29.132;2023-07-29T02:27:04;7.50;;;4.10;;
8944;SDS011;4507;40.232;29.132;2023-07-29T02:29:33;10.97;;;4.17;;
8944;SDS011;4507;40.232;29.132;2023-07-29T02:32:03;6.77;;;4.30;;
8944;SDS011;4507;40.232;29.132;2023-07-29T02:34:32;6.77;;;3.93;;
8944;SDS011;4507;40.232;29.132;2023-07-29T02:37:02;6.90;;;4.17;;
8944;SDS011;4507;40.232;29.132;2023-07-29T02:39:31;7.50;;;3.60;;
8944;SDS011;4507;40.232;29.132;2023-07-29T02:42:00;7.37;;;3.60;;
8944;SDS011;4507;40.232;29.132;2023-07-29T02:44:31;27.33;;;4.90;;
8944;SDS011;4507;40.232;29.132;2023-07-29T02:47:00;11.07;;;3.57;;
8944;SDS011;4507;40.232;29.132;2023-07-29T02:49:29;10.80;;;3.93;;
8944;SDS011;4507;40.232;29.132;2023-07-29T02:51:58;13.90;;;4.20;;
8944;SDS011;4507;40.232;29.132;2023-07-29T02:54:27;9.20;;;4.00;;
8944;SDS011;4507;40.232;29.132;2023-07-29T02:56:57;18.63;;;5.70;;
8944;SDS011;4507;40.232;29.132;2023-07-29T02:59:27;19.87;;;5.00;;
8944;SDS011;4507;40.232;29.132;2023-07-29T03:01:58;10.57;;;4.20;;
8944;SDS011;4507;40.232;29.132;2023-07-29T03:04:27;11.37;;;3.87;;
8944;SDS011;4507;40.232;29.132;2023-07-29T03:06:59;12.57;;;4.90;;
8944;SDS011;4507;40.232;29.132;2023-07-29T03:09:29;7.97;;;4.50;;
8944;SDS011;4507;40.232;29.132;2023-07-29T03:11:58;13.70;;;4.23;;
8944;SDS011;4507;40.232;29.132;2023-07-29T03:14:28;10.00;;;4.70;;
8944;SDS011;4507;40.232;29.132;2023-07-29T03:17:00;17.13;;;4.60;;
8944;SDS011;4507;40.232;29.132;2023-07-29T03:19:33;7.13;;;4.40;;
8944;SDS011;4507;40.232;29.132;2023-07-29T03:22:02;12.60;;;4.33;;
8944;SDS011;4507;40.232;29.132;2023-07-29T03:24:31;10.80;;;4.53;;
8944;SDS011;4507;40.232;29.132;2023-07-29T03:27:00;11.40;;;4.53;;
8944;SDS011;4507;40.232;29.132;2023-07-29T03:29:48;21.73;;;5.50;;
8944;SDS011;4507;40.232;29.132;2023-07-29T03:32:18;10.27;;;4.60;;
8944;SDS011;4507;40.232;29.132;2023-07-29T03:34:47;11.27;;;4.20;;
8944;SDS011;4507;40.232;29.132;2023-07-29T03:37:16;11.03;;;4.17;;
8944;SDS011;4507;40.232;29.132;2023-07-29T03:39:46;13.87;;;4.03;;
8944;SDS011;4507;40.232;29.132;2023-07-29T03:42:15;28.37;;;5.27;;
8944;SDS011;4507;40.232;29.132;2023-07-29T03:44:44;48.03;;;8.50;;
8944;SDS011;4507;40.232;29.132;2023-07-29T03:47:14;19.77;;;5.20;;
8944;SDS011;4507;40.232;29.132;2023-07-29T03:49:44;17.70;;;4.77;;
8944;SDS011;4507;40.232;29.132;2023-07-29T03:52:15;15.70;;;5.10;;
8944;SDS011;4507;40.232;29.132;2023-07-29T03:54:45;9.40;;;4.87;;
8944;SDS011;4507;40.232;29.132;2023-07-29T03:57:14;12.40;;;5.27;;
8944;SDS011;4507;40.232;29.132;2023-07-29T03:59:43;12.27;;;5.80;;
8944;SDS011;4507;40.232;29.132;2023-07-29T04:02:12;14.03;;;5.07;;
8944;SDS011;4507;40.232;29.132;2023-07-29T04:04:42;14.33;;;5.77;;
8944;SDS011;4507;40.232;29.132;2023-07-29T04:07:16;16.33;;;5.70;;
8944;SDS011;4507;40.232;29.132;2023-07-29T04:09:45;14.00;;;5.10;;
8944;SDS011;4507;40.232;29.132;2023-07-29T04:12:14;14.57;;;5.50;;
8944;SDS011;4507;40.232;29.132;2023-07-29T04:14:43;16.50;;;5.60;;
8944;SDS011;4507;40.232;29.132;2023-07-29T04:17:12;13.70;;;5.50;;
8944;SDS011;4507;40.232;29.132;2023-07-29T04:19:41;17.23;;;5.90;;
8944;SDS011;4507;40.232;29.132;2023-07-29T04:22:10;17.03;;;5.63;;
8944;SDS011;4507;40.232;29.132;2023-07-29T04:24:41;16.77;;;5.57;;
8944;SDS011;4507;40.232;29.132;2023-07-29T04:27:11;14.27;;;5.27;;
8944;SDS011;4507;40.232;29.132;2023-07-29T04:29:40;14.70;;;5.83;;
8944;SDS011;4507;40.232;29.132;2023-07-29T04:32:09;12.60;;;5.27;;
8944;SDS011;4507;40.232;29.132;2023-07-29T04:34:40;16.93;;;5.87;;
8944;SDS011;4507;40.232;29.132;2023-07-29T04:37:09;18.87;;;6.27;;
8944;SDS011;4507;40.232;29.132;2023-07-29T04:39:38;22.10;;;7.10;;
8944;SDS011;4507;40.232;29.132;2023-07-29T04:42:09;19.97;;;7.67;;
8944;SDS011;4507;40.232;29.132;2023-07-29T04:44:38;23.77;;;8.83;;
8944;SDS011;4507;40.232;29.132;2023-07-29T04:47:08;29.30;;;11.03;;
8944;SDS011;4507;40.232;29.132;2023-07-29T04:49:37;23.83;;;16.17;;
8944;SDS011;4507;40.232;29.132;2023-07-29T04:52:07;33.70;;;20.77;;
8944;SDS011;4507;40.232;29.132;2023-07-29T04:54:36;42.73;;;27.00;;
8944;SDS011;4507;40.232;29.132;2023-07-29T04:57:07;31.67;;;24.83;;
8944;SDS011;4507;40.232;29.132;2023-07-29T04:59:36;47.97;;;25.57;;
8944;SDS011;4507;40.232;29.132;2023-07-29T05:02:06;30.90;;;20.90;;
8944;SDS011;4507;40.232;29.132;2023-07-29T05:04:34;34.77;;;22.90;;
8944;SDS011;4507;40.232;29.132;2023-07-29T05:07:04;24.87;;;21.30;;
8944;SDS011;4507;40.232;29.132;2023-07-29T05:09:34;26.50;;;19.60;;
8944;SDS011;4507;40.232;29.132;2023-07-29T05:12:04;22.97;;;17.63;;
8944;SDS011;4507;40.232;29.132;2023-07-29T05:14:38;16.00;;;11.23;;
8944;SDS011;4507;40.232;29.132;2023-07-29T05:17:08;14.10;;;8.33;;
8944;SDS011;4507;40.232;29.132;2023-07-29T05:19:38;22.40;;;7.40;;
8944;SDS011;4507;40.232;29.132;2023-07-29T05:22:07;20.87;;;6.40;;
8944;SDS011;4507;40.232;29.132;2023-07-29T05:24:38;19.33;;;7.00;;
8944;SDS011;4507;40.232;29.132;2023-07-29T05:27:07;15.60;;;6.03;;
8944;SDS011;4507;40.232;29.132;2023-07-29T05:29:38;25.37;;;6.83;;
8944;SDS011;4507;40.232;29.132;2023-07-29T05:32:08;33.43;;;6.93;;
8944;SDS011;4507;40.232;29.132;2023-07-29T05:34:37;27.07;;;6.60;;
8944;SDS011;4507;40.232;29.132;2023-07-29T05:37:06;13.43;;;5.90;;
8944;SDS011;4507;40.232;29.132;2023-07-29T05:39:35;14.50;;;6.07;;
8944;SDS011;4507;40.232;29.132;2023-07-29T05:42:05;28.83;;;7.13;;
8944;SDS011;4507;40.232;29.132;2023-07-29T05:44:35;24.77;;;6.80;;
8944;SDS011;4507;40.232;29.132;2023-07-29T05:47:05;19.47;;;6.83;;
8944;SDS011;4507;40.232;29.132;2023-07-29T05:49:36;31.53;;;8.40;;
8944;SDS011;4507;40.232;29.132;2023-07-29T05:52:05;17.03;;;8.43;;
8944;SDS011;4507;40.232;29.132;2023-07-29T05:54:35;24.83;;;9.40;;
8944;SDS011;4507;40.232;29.132;2023-07-29T05:57:04;31.00;;;10.10;;
8944;SDS011;4507;40.232;29.132;2023-07-29T05:59:34;42.43;;;10.43;;
8944;SDS011;4507;40.232;29.132;2023-07-29T06:02:03;24.97;;;9.40;;
8944;SDS011;4507;40.232;29.132;2023-07-29T06:04:34;29.77;;;10.43;;
8944;SDS011;4507;40.232;29.132;2023-07-29T06:07:04;25.40;;;9.37;;
8944;SDS011;4507;40.232;29.132;2023-07-29T06:09:34;36.17;;;9.50;;
8944;SDS011;4507;40.232;29.132;2023-07-29T06:12:03;33.87;;;9.80;;
8944;SDS011;4507;40.232;29.132;2023-07-29T06:14:36;22.37;;;9.97;;
8944;SDS011;4507;40.232;29.132;2023-07-29T06:17:05;36.30;;;12.20;;
8944;SDS011;4507;40.232;29.132;2023-07-29T06:19:36;32.13;;;11.67;;
8944;SDS011;4507;40.232;29.132;2023-07-29T06:22:06;32.13;;;16.33;;
8944;SDS011;4507;40.232;29.132;2023-07-29T06:24:35;36.27;;;14.57;;
8944;SDS011;4507;40.232;29.132;2023-07-29T06:27:04;27.13;;;14.57;;
8944;SDS011;4507;40.232;29.132;2023-07-29T06:33:33;38.53;;;15.10;;
8944;SDS011;4507;40.232;29.132;2023-07-29T06:43:17;31.87;;;14.57;;
8944;SDS011;4507;40.232;29.132;2023-07-29T06:48:34;19.03;;;12.17;;
8944;SDS011;4507;40.232;29.132;2023-07-29T06:51:03;23.27;;;11.40;;
8944;SDS011;4507;40.232;29.132;2023-07-29T06:53:32;30.43;;;14.77;;
8944;SDS011;4507;40.232;29.132;2023-07-29T06:56:01;21.20;;;10.43;;
8944;SDS011;4507;40.232;29.132;2023-07-29T06:58:39;17.37;;;8.90;;
8944;SDS011;4507;40.232;29.132;2023-07-29T07:04:38;24.77;;;14.67;;
8944;SDS011;4507;40.232;29.132;2023-07-29T07:07:07;25.03;;;14.03;;
8944;SDS011;4507;40.232;29.132;2023-07-29T07:09:36;38.40;;;18.60;;
8944;SDS011;4507;40.232;29.132;2023-07-29T07:12:05;41.30;;;21.20;;
8944;SDS011;4507;40.232;29.132;2023-07-29T07:14:36;35.70;;;17.50;;
8944;SDS011;4507;40.232;29.132;2023-07-29T07:17:05;30.13;;;18.27;;
8944;SDS011;4507;40.232;29.132;2023-07-29T07:19:38;49.90;;;16.40;;
8944;SDS011;4507;40.232;29.132;2023-07-29T07:22:08;18.53;;;12.23;;
8944;SDS011;4507;40.232;29.132;2023-07-29T07:24:37;18.33;;;15.33;;
8944;SDS011;4507;40.232;29.132;2023-07-29T07:27:07;60.43;;;13.67;;
8944;SDS011;4507;40.232;29.132;2023-07-29T07:29:48;47.53;;;14.53;;
8944;SDS011;4507;40.232;29.132;2023-07-29T07:32:17;28.43;;;16.37;;
8944;SDS011;4507;40.232;29.132;2023-07-29T07:34:46;20.80;;;13.97;;
8944;SDS011;4507;40.232;29.132;2023-07-29T07:37:15;34.43;;;12.10;;
8944;SDS011;4507;40.232;29.132;2023-07-29T07:40:03;19.57;;;9.03;;
8944;SDS011;4507;40.232;29.132;2023-07-29T07:42:32;15.97;;;6.87;;
8944;SDS011;4507;40.232;29.132;2023-07-29T07:45:03;13.77;;;5.63;;
8944;SDS011;4507;40.232;29.132;2023-07-29T07:47:33;14.73;;;5.20;;
8944;SDS011;4507;40.232;29.132;2023-07-29T07:50:02;11.20;;;5.10;;
8944;SDS011;4507;40.232;29.132;2023-07-29T07:52:31;20.67;;;5.60;;
8944;SDS011;4507;40.232;29.132;2023-07-29T07:55:00;16.83;;;5.33;;
8944;SDS011;4507;40.232;29.132;2023-07-29T07:57:29;15.50;;;5.60;;
8944;SDS011;4507;40.232;29.132;2023-07-29T08:00:19;23.17;;;6.10;;
8944;SDS011;4507;40.232;29.132;2023-07-29T08:02:48;12.20;;;4.83;;
8944;SDS011;4507;40.232;29.132;2023-07-29T08:05:17;14.57;;;4.60;;
8944;SDS011;4507;40.232;29.132;2023-07-29T08:07:46;8.10;;;4.60;;
8944;SDS011;4507;40.232;29.132;2023-07-29T08:10:15;13.57;;;4.50;;
8944;SDS011;4507;40.232;29.132;2023-07-29T08:12:44;16.33;;;4.47;;
8944;SDS011;4507;40.232;29.132;2023-07-29T08:15:13;17.43;;;4.50;;
8944;SDS011;4507;40.232;29.132;2023-07-29T08:17:43;10.70;;;4.20;;
8944;SDS011;4507;40.232;29.132;2023-07-29T08:20:14;8.83;;;3.57;;
8944;SDS011;4507;40.232;29.132;2023-07-29T08:22:43;9.47;;;4.00;;
8944;SDS011;4507;40.232;29.132;2023-07-29T08:25:12;8.63;;;3.20;;
8944;SDS011;4507;40.232;29.132;2023-07-29T08:27:41;11.17;;;3.07;;
8944;SDS011;4507;40.232;29.132;2023-07-29T08:33:54;14.60;;;5.00;;
8944;SDS011;4507;40.232;29.132;2023-07-29T08:36:39;14.43;;;5.00;;
8944;SDS011;4507;40.232;29.132;2023-07-29T08:39:09;17.20;;;4.07;;
8944;SDS011;4507;40.232;29.132;2023-07-29T08:41:40;9.90;;;3.73;;
8944;SDS011;4507;40.232;29.132;2023-07-29T08:47:21;10.00;;;3.33;;
8944;SDS011;4507;40.232;29.132;2023-07-29T08:49:52;18.43;;;4.77;;
8944;SDS011;4507;40.232;29.132;2023-07-29T08:55:50;6.83;;;3.40;;
8944;SDS011;4507;40.232;29.132;2023-07-29T08:58:21;5.53;;;3.00;;
8944;SDS011;4507;40.232;29.132;2023-07-29T09:04:34;10.97;;;3.00;;
8944;SDS011;4507;40.232;29.132;2023-07-29T09:07:04;40.97;;;4.93;;
8944;SDS011;4507;40.232;29.132;2023-07-29T09:09:35;7.33;;;3.33;;
8944;SDS011;4507;40.232;29.132;2023-07-29T09:12:06;58.63;;;7.00;;
8944;SDS011;4507;40.232;29.132;2023-07-29T09:14:45;303.93;;;22.27;;
8944;SDS011;4507;40.232;29.132;2023-07-29T09:17:14;10.67;;;2.80;;
8944;SDS011;4507;40.232;29.132;2023-07-29T09:19:47;11.57;;;3.60;;
8944;SDS011;4507;40.232;29.132;2023-07-29T09:22:20;16.03;;;4.37;;
8944;SDS011;4507;40.232;29.132;2023-07-29T09:24:57;16.60;;;3.00;;
8944;SDS011;4507;40.232;29.132;2023-07-29T09:27:26;6.93;;;2.80;;
8944;SDS011;4507;40.232;29.132;2023-07-29T09:29:59;10.63;;;3.10;;
8944;SDS011;4507;40.232;29.132;2023-07-29T09:32:33;11.90;;;2.73;;
8944;SDS011;4507;40.232;29.132;2023-07-29T09:35:02;17.73;;;3.17;;
8944;SDS011;4507;40.232;29.132;2023-07-29T09:37:39;15.47;;;3.90;;
8944;SDS011;4507;40.232;29.132;2023-07-29T09:40:21;10.93;;;3.20;;
8944;SDS011;4507;40.232;29.132;2023-07-29T09:42:50;5.90;;;2.90;;
8944;SDS011;4507;40.232;29.132;2023-07-29T09:45:21;26.83;;;4.07;;
8944;SDS011;4507;40.232;29.132;2023-07-29T09:47:57;6.70;;;2.30;;
8944;SDS011;4507;40.232;29.132;2023-07-29T09:50:28;12.93;;;3.07;;
8944;SDS011;4507;40.232;29.132;2023-07-29T09:53:01;5.20;;;2.70;;
8944;SDS011;4507;40.232;29.132;2023-07-29T09:55:32;8.53;;;3.90;;
8944;SDS011;4507;40.232;29.132;2023-07-29T09:58:02;5.17;;;2.77;;
8944;SDS011;4507;40.232;29.132;2023-07-29T10:00:36;13.30;;;3.23;;
8944;SDS011;4507;40.232;29.132;2023-07-29T10:03:07;15.27;;;3.10;;
8944;SDS011;4507;40.232;29.132;2023-07-29T10:05:39;7.90;;;2.50;;
8944;SDS011;4507;40.232;29.132;2023-07-29T10:08:10;13.13;;;3.77;;
8944;SDS011;4507;40.232;29.132;2023-07-29T10:10:43;6.20;;;2.60;;
8944;SDS011;4507;40.232;29.132;2023-07-29T10:13:15;13.57;;;2.70;;
8944;SDS011;4507;40.232;29.132;2023-07-29T10:15:45;9.40;;;3.10;;
8944;SDS011;4507;40.232;29.132;2023-07-29T10:18:18;4.67;;;2.70;;
8944;SDS011;4507;40.232;29.132;2023-07-29T10:20:50;6.13;;;2.33;;
8944;SDS011;4507;40.232;29.132;2023-07-29T10:23:21;17.60;;;3.73;;
8944;SDS011;4507;40.232;29.132;2023-07-29T10:25:54;8.10;;;2.60;;
8944;SDS011;4507;40.232;29.132;2023-07-29T10:28:46;14.20;;;3.67;;
8944;SDS011;4507;40.232;29.132;2023-07-29T10:31:17;6.27;;;2.40;;
8944;SDS011;4507;40.232;29.132;2023-07-29T10:33:47;5.27;;;2.50;;
8944;SDS011;4507;40.232;29.132;2023-07-29T10:36:16;8.67;;;2.70;;
8944;SDS011;4507;40.232;29.132;2023-07-29T10:38:50;3.97;;;2.33;;
8944;SDS011;4507;40.232;29.132;2023-07-29T10:41:19;11.23;;;4.13;;
8944;SDS011;4507;40.232;29.132;2023-07-29T10:43:48;9.47;;;2.70;;
8944;SDS011;4507;40.232;29.132;2023-07-29T10:46:21;18.20;;;8.00;;
8944;SDS011;4507;40.232;29.132;2023-07-29T10:49:41;11.13;;;2.43;;
8944;SDS011;4507;40.232;29.132;2023-07-29T10:52:12;7.33;;;2.40;;
8944;SDS011;4507;40.232;29.132;2023-07-29T10:54:44;13.27;;;2.90;;
8944;SDS011;4507;40.232;29.132;2023-07-29T10:57:33;8.53;;;3.27;;
8944;SDS011;4507;40.232;29.132;2023-07-29T11:00:03;10.30;;;5.10;;
8944;SDS011;4507;40.232;29.132;2023-07-29T11:02:35;14.50;;;6.37;;
8944;SDS011;4507;40.232;29.132;2023-07-29T11:05:05;14.63;;;4.43;;
8944;SDS011;4507;40.232;29.132;2023-07-29T11:10:23;14.30;;;3.90;;
8944;SDS011;4507;40.232;29.132;2023-07-29T11:12:52;8.67;;;2.50;;
8944;SDS011;4507;40.232;29.132;2023-07-29T11:15:22;13.57;;;4.47;;
8944;SDS011;4507;40.232;29.132;2023-07-29T11:17:53;16.30;;;2.87;;
8944;SDS011;4507;40.232;29.132;2023-07-29T11:20:24;12.47;;;2.97;;
8944;SDS011;4507;40.232;29.132;2023-07-29T11:22:54;13.40;;;3.83;;
8944;SDS011;4507;40.232;29.132;2023-07-29T11:25:26;9.13;;;2.53;;
8944;SDS011;4507;40.232;29.132;2023-07-29T11:28:00;7.23;;;3.10;;
8944;SDS011;4507;40.232;29.132;2023-07-29T11:30:33;33.90;;;4.83;;
8944;SDS011;4507;40.232;29.132;2023-07-29T11:33:02;7.37;;;2.17;;
8944;SDS011;4507;40.232;29.132;2023-07-29T11:35:31;8.33;;;2.00;;
8944;SDS011;4507;40.232;29.132;2023-07-29T11:38:01;13.27;;;2.87;;
8944;SDS011;4507;40.232;29.132;2023-07-29T11:40:31;9.47;;;2.50;;
8944;SDS011;4507;40.232;29.132;2023-07-29T11:43:00;12.57;;;4.27;;
8944;SDS011;4507;40.232;29.132;2023-07-29T11:45:29;7.10;;;2.70;;
8944;SDS011;4507;40.232;29.132;2023-07-29T11:48:17;15.17;;;2.53;;
8944;SDS011;4507;40.232;29.132;2023-07-29T11:50:46;48.03;;;23.27;;
8944;SDS011;4507;40.232;29.132;2023-07-29T11:53:15;20.40;;;2.80;;
8944;SDS011;4507;40.232;29.132;2023-07-29T11:55:45;7.90;;;2.22;;
8944;SDS011;4507;40.232;29.132;2023-07-29T11:58:20;32.22;;;15.23;;
8944;SDS011;4507;40.232;29.132;2023-07-29T12:00:49;12.05;;;6.57;;
8944;SDS011;4507;40.232;29.132;2023-07-29T12:03:20;14.73;;;2.90;;
8944;SDS011;4507;40.232;29.132;2023-07-29T12:05:50;14.68;;;5.00;;
8944;SDS011;4507;40.232;29.132;2023-07-29T12:08:19;17.70;;;2.60;;
8944;SDS011;4507;40.232;29.132;2023-07-29T12:10:50;22.02;;;3.38;;
8944;SDS011;4507;40.232;29.132;2023-07-29T12:13:19;34.75;;;3.75;;
8944;SDS011;4507;40.232;29.132;2023-07-29T12:15:52;54.28;;;7.07;;
8944;SDS011;4507;40.232;29.132;2023-07-29T12:18:30;39.05;;;12.45;;
8944;SDS011;4507;40.232;29.132;2023-07-29T12:20:59;11.90;;;2.88;;
8944;SDS011;4507;40.232;29.132;2023-07-29T12:23:28;29.48;;;3.90;;
8944;SDS011;4507;40.232;29.132;2023-07-29T12:25:59;12.10;;;2.70;;
8944;SDS011;4507;40.232;29.132;2023-07-29T12:28:49;18.15;;;4.20;;
8944;SDS011;4507;40.232;29.132;2023-07-29T12:31:20;25.95;;;3.70;;
8944;SDS011;4507;40.232;29.132;2023-07-29T12:33:56;25.58;;;3.30;;
8944;SDS011;4507;40.232;29.132;2023-07-29T12:37:30;30.02;;;4.63;;
8944;SDS011;4507;40.232;29.132;2023-07-29T12:39:53;12.57;;;2.30;;
8944;SDS011;4507;40.232;29.132;2023-07-29T12:42:33;19.48;;;4.68;;
8944;SDS011;4507;40.232;29.132;2023-07-29T12:45:35;13.02;;;3.72;;
8944;SDS011;4507;40.232;29.132;2023-07-29T12:48:37;14.40;;;3.70;;
8944;SDS011;4507;40.232;29.132;2023-07-29T12:51:08;19.20;;;5.50;;
8944;SDS011;4507;40.232;29.132;2023-07-29T12:53:47;20.70;;;2.90;;
8944;SDS011;4507;40.232;29.132;2023-07-29T12:56:16;11.83;;;3.03;;
8944;SDS011;4507;40.232;29.132;2023-07-29T12:58:55;19.87;;;3.47;;
8944;SDS011;4507;40.232;29.132;2023-07-29T13:02:40;14.57;;;3.40;;
8944;SDS011;4507;40.232;29.132;2023-07-29T13:05:11;14.13;;;3.30;;
8944;SDS011;4507;40.232;29.132;2023-07-29T13:07:49;12.97;;;2.47;;
8944;SDS011;4507;40.232;29.132;2023-07-29T13:10:18;12.33;;;2.53;;
8944;SDS011;4507;40.232;29.132;2023-07-29T13:12:49;21.57;;;3.83;;
8944;SDS011;4507;40.232;29.132;2023-07-29T13:15:28;14.93;;;2.93;;
8944;SDS011;4507;40.232;29.132;2023-07-29T13:17:56;12.07;;;3.07;;
8944;SDS011;4507;40.232;29.132;2023-07-29T13:20:26;10.37;;;2.80;;
8944;SDS011;4507;40.232;29.132;2023-07-29T13:22:58;8.53;;;2.27;;
8944;SDS011;4507;40.232;29.132;2023-07-29T13:25:34;12.90;;;2.97;;
8944;SDS011;4507;40.232;29.132;2023-07-29T13:28:03;9.80;;;2.10;;
8944;SDS011;4507;40.232;29.132;2023-07-29T13:30:34;6.73;;;2.20;;
8944;SDS011;4507;40.232;29.132;2023-07-29T13:33:03;9.70;;;2.60;;
8944;SDS011;4507;40.232;29.132;2023-07-29T13:35:32;31.23;;;4.17;;
8944;SDS011;4507;40.232;29.132;2023-07-29T13:38:01;10.27;;;3.23;;
8944;SDS011;4507;40.232;29.132;2023-07-29T13:40:31;23.27;;;3.53;;
8944;SDS011;4507;40.232;29.132;2023-07-29T13:43:04;8.50;;;2.40;;
8944;SDS011;4507;40.232;29.132;2023-07-29T13:45:34;10.57;;;2.90;;
8944;SDS011;4507;40.232;29.132;2023-07-29T13:48:05;9.87;;;2.80;;
8944;SDS011;4507;40.232;29.132;2023-07-29T13:50:43;6.10;;;2.30;;
8944;SDS011;4507;40.232;29.132;2023-07-29T13:53:12;12.70;;;2.57;;
8944;SDS011;4507;40.232;29.132;2023-07-29T13:55:41;15.13;;;2.60;;
8944;SDS011;4507;40.232;29.132;2023-07-29T13:58:10;23.13;;;4.57;;
8944;SDS011;4507;40.232;29.132;2023-07-29T14:00:41;10.90;;;2.43;;
8944;SDS011;4507;40.232;29.132;2023-07-29T14:03:10;8.83;;;2.57;;
8944;SDS011;4507;40.232;29.132;2023-07-29T14:05:39;14.20;;;3.00;;
8944;SDS011;4507;40.232;29.132;2023-07-29T14:08:08;5.50;;;2.17;;
8944;SDS011;4507;40.232;29.132;2023-07-29T14:10:37;9.63;;;2.00;;
8944;SDS011;4507;40.232;29.132;2023-07-29T14:13:09;12.20;;;2.93;;
8944;SDS011;4507;40.232;29.132;2023-07-29T14:15:38;9.53;;;2.70;;
8944;SDS011;4507;40.232;29.132;2023-07-29T14:18:09;11.40;;;2.70;;
8944;SDS011;4507;40.232;29.132;2023-07-29T14:20:38;13.77;;;2.90;;
8944;SDS011;4507;40.232;29.132;2023-07-29T14:23:07;8.03;;;2.23;;
8944;SDS011;4507;40.232;29.132;2023-07-29T14:25:36;11.80;;;2.60;;
8944;SDS011;4507;40.232;29.132;2023-07-29T14:28:05;4.97;;;2.43;;
8944;SDS011;4507;40.232;29.132;2023-07-29T14:30:34;13.33;;;2.60;;
8944;SDS011;4507;40.232;29.132;2023-07-29T14:33:06;14.57;;;3.13;;
8944;SDS011;4507;40.232;29.132;2023-07-29T14:35:35;11.07;;;3.07;;
8944;SDS011;4507;40.232;29.132;2023-07-29T14:38:14;13.07;;;2.90;;
8944;SDS011;4507;40.232;29.132;2023-07-29T14:40:49;9.47;;;2.47;;
8944;SDS011;4507;40.232;29.132;2023-07-29T14:43:21;14.80;;;3.00;;
8944;SDS011;4507;40.232;29.132;2023-07-29T14:46:09;19.40;;;3.30;;
8944;SDS011;4507;40.232;29.132;2023-07-29T14:48:39;16.77;;;3.00;;
8944;SDS011;4507;40.232;29.132;2023-07-29T14:51:08;10.50;;;3.10;;
8944;SDS011;4507;40.232;29.132;2023-07-29T14:53:37;18.37;;;3.50;;
8944;SDS011;4507;40.232;29.132;2023-07-29T14:56:06;12.17;;;3.30;;
8944;SDS011;4507;40.232;29.132;2023-07-29T14:58:36;31.40;;;4.47;;
8944;SDS011;4507;40.232;29.132;2023-07-29T15:01:14;40.23;;;4.83;;
8944;SDS011;4507;40.232;29.132;2023-07-29T15:04:08;15.57;;;3.87;;
8944;SDS011;4507;40.232;29.132;2023-07-29T15:06:37;9.67;;;3.07;;
8944;SDS011;4507;40.232;29.132;2023-07-29T15:09:24;22.13;;;3.60;;
8944;SDS011;4507;40.232;29.132;2023-07-29T15:11:53;14.03;;;3.13;;
8944;SDS011;4507;40.232;29.132;2023-07-29T15:14:25;13.27;;;2.77;;
8944;SDS011;4507;40.232;29.132;2023-07-29T15:16:54;13.37;;;3.20;;
8944;SDS011;4507;40.232;29.132;2023-07-29T15:19:24;10.40;;;2.87;;
8944;SDS011;4507;40.232;29.132;2023-07-29T15:21:53;18.10;;;3.27;;
8944;SDS011;4507;40.232;29.132;2023-07-29T15:24:24;9.40;;;3.17;;
8944;SDS011;4507;40.232;29.132;2023-07-29T15:27:00;14.27;;;3.10;;
8944;SDS011;4507;40.232;29.132;2023-07-29T15:29:29;10.97;;;2.97;;
8944;SDS011;4507;40.232;29.132;2023-07-29T15:31:59;16.03;;;3.60;;
8944;SDS011;4507;40.232;29.132;2023-07-29T15:34:34;20.80;;;3.67;;
8944;SDS011;4507;40.232;29.132;2023-07-29T15:37:10;10.67;;;3.20;;
8944;SDS011;4507;40.232;29.132;2023-07-29T15:39:39;9.80;;;2.80;;
8944;SDS011;4507;40.232;29.132;2023-07-29T15:42:08;20.10;;;4.50;;
8944;SDS011;4507;40.232;29.132;2023-07-29T15:44:37;8.20;;;3.27;;
8944;SDS011;4507;40.232;29.132;2023-07-29T15:47:06;14.13;;;3.03;;
8944;SDS011;4507;40.232;29.132;2023-07-29T15:49:37;15.27;;;3.17;;
8944;SDS011;4507;40.232;29.132;2023-07-29T15:52:06;6.63;;;2.70;;